sensor_id;sensor_type;location;lat;lon;timestamp;temperature;humidity
20574;DHT22;10445;50.216;7.912;2023-02-03T00:02:19;5.50;99.90
20574;DHT22;10445;50.216;7.912;2023-02-03T00:05:08;5.40;99.90
20574;DHT22;10445;50.216;7.912;2023-02-03T00:07:56;5.30;99.90
20574;DHT22;10445;50.216;7.912;2023-02-03T00:10:46;5.20;99.90
20574;DHT22;10445;50.216;7.912;2023-02-03T00:13:35;5.20;99.90
20574;DHT22;10445;50.216;7.912;2023-02-03T00:16:25;5.20;99.90
20574;DHT22;10445;50.216;7.912;2023-02-03T00:19:14;5.10;99.90
20574;DHT22;10445;50.216;7.912;2023-02-03T00:22:03;5.10;99.90
20574;DHT22;10445;50.216;7.912;2023-02-03T00:24:52;5.10;99.90
20574;DHT22;10445;50.216;7.912;2023-02-03T00:27:41;5.10;99.90
20574;DHT22;10445;50.216;7.912;2023-02-03T00:30:30;5.20;99.90
20574;DHT22;10445;50.216;7.912;2023-02-03T00:33:20;5.20;99.90
20574;DHT22;10445;50.216;7.912;2023-02-03T00:36:09;5.30;99.90
20574;DHT22;10445;50.216;7.912;2023-02-03T00:38:59;5.30;99.90
20574;DHT22;10445;50.216;7.912;2023-02-03T00:41:48;5.30;99.90
20574;DHT22;10445;50.216;7.912;2023-02-03T00:44:36;5.40;99.90
20574;DHT22;10445;50.216;7.912;2023-02-03T00:47:25;5.40;99.90
20574;DHT22;10445;50.216;7.912;2023-02-03T00:50:16;5.40;99.90
20574;DHT22;10445;50.216;7.912;2023-02-03T00:53:05;5.40;99.90
20574;DHT22;10445;50.216;7.912;2023-02-03T00:55:53;5.40;99.90
20574;DHT22;10445;50.216;7.912;2023-02-03T00:58:42;5.40;99.90
20574;DHT22;10445;50.216;7.912;2023-02-03T01:01:31;5.30;99.90
20574;DHT22;10445;50.216;7.912;2023-02-03T01:04:20;5.30;99.90
20574;DHT22;10445;50.216;7.912;2023-02-03T01:07:10;5.30;99.90
20574;DHT22;10445;50.216;7.912;2023-02-03T01:09:58;5.30;99.90
20574;DHT22;10445;50.216;7.912;2023-02-03T01:12:47;5.30;99.90
20574;DHT22;10445;50.216;7.912;2023-02-03T01:15:36;5.30;99.90
20574;DHT22;10445;50.216;7.912;2023-02-03T01:18:24;5.30;99.90
20574;DHT22;10445;50.216;7.912;2023-02-03T01:21:15;5.30;99.90
20574;DHT22;10445;50.216;7.912;2023-02-03T01:24:05;5.30;99.90
20574;DHT22;10445;50.216;7.912;2023-02-03T01:26:55;5.30;99.90
20574;DHT22;10445;50.216;7.912;2023-02-03T01:29:44;5.30;99.90
20574;DHT22;10445;50.216;7.912;2023-02-03T01:32:33;5.30;99.90
20574;DHT22;10445;50.216;7.912;2023-02-03T01:35:21;5.30;99.90
20574;DHT22;10445;50.216;7.912;2023-02-03T01:38:10;5.40;99.90
20574;DHT22;10445;50.216;7.912;2023-02-03T01:41:00;5.30;99.90
20574;DHT22;10445;50.216;7.912;2023-02-03T01:43:51;5.40;99.90
20574;DHT22;10445;50.216;7.912;2023-02-03T01:46:45;5.40;99.90
20574;DHT22;10445;50.216;7.912;2023-02-03T01:49:35;5.40;99.90
20574;DHT22;10445;50.216;7.912;2023-02-03T01:52:25;5.40;99.90
20574;DHT22;10445;50.216;7.912;2023-02-03T01:55:18;5.40;99.90
20574;DHT22;10445;50.216;7.912;2023-02-03T01:58:11;5.50;99.90
20574;DHT22;10445;50.216;7.912;2023-02-03T02:01:01;5.50;99.90
20574;DHT22;10445;50.216;7.912;2023-02-03T02:03:52;5.40;99.90
20574;DHT22;10445;50.216;7.912;2023-02-03T02:06:43;5.50;99.90
20574;DHT22;10445;50.216;7.912;2023-02-03T02:09:34;5.40;99.90
20574;DHT22;10445;50.216;7.912;2023-02-03T02:12:23;5.50;99.90
20574;DHT22;10445;50.216;7.912;2023-02-03T02:15:13;5.50;99.90
20574;DHT22;10445;50.216;7.912;2023-02-03T02:25:01;5.50;99.90
20574;DHT22;10445;50.216;7.912;2023-02-03T02:31:46;5.60;99.90
20574;DHT22;10445;50.216;7.912;2023-02-03T02:34:47;5.50;99.90
20574;DHT22;10445;50.216;7.912;2023-02-03T02:37:51;5.60;99.90
20574;DHT22;10445;50.216;7.912;2023-02-03T02:40:48;5.60;99.90
20574;DHT22;10445;50.216;7.912;2023-02-03T02:43:41;5.60;99.90
20574;DHT22;10445;50.216;7.912;2023-02-03T02:46:34;5.60;99.90
20574;DHT22;10445;50.216;7.912;2023-02-03T02:49:30;5.60;99.90
20574;DHT22;10445;50.216;7.912;2023-02-03T02:52:21;5.60;99.90
20574;DHT22;10445;50.216;7.912;2023-02-03T02:55:16;5.70;99.90
20574;DHT22;10445;50.216;7.912;2023-02-03T02:58:13;5.70;99.90
20574;DHT22;10445;50.216;7.912;2023-02-03T03:01:03;5.70;99.90
20574;DHT22;10445;50.216;7.912;2023-02-03T03:03:54;5.70;99.90
20574;DHT22;10445;50.216;7.912;2023-02-03T03:06:48;5.70;99.90
20574;DHT22;10445;50.216;7.912;2023-02-03T03:09:40;5.60;99.90
20574;DHT22;10445;50.216;7.912;2023-02-03T03:12:33;5.70;99.90
20574;DHT22;10445;50.216;7.912;2023-02-03T03:15:25;5.70;99.90
20574;DHT22;10445;50.216;7.912;2023-02-03T03:18:20;5.70;99.90
20574;DHT22;10445;50.216;7.912;2023-02-03T03:21:15;5.70;99.90
20574;DHT22;10445;50.216;7.912;2023-02-03T03:24:09;5.70;99.90
20574;DHT22;10445;50.216;7.912;2023-02-03T03:27:03;5.70;99.90
20574;DHT22;10445;50.216;7.912;2023-02-03T03:29:56;5.60;99.90
20574;DHT22;10445;50.216;7.912;2023-02-03T03:32:46;5.70;99.90
20574;DHT22;10445;50.216;7.912;2023-02-03T03:35:38;5.60;99.90
20574;DHT22;10445;50.216;7.912;2023-02-03T03:38:36;5.60;99.90
20574;DHT22;10445;50.216;7.912;2023-02-03T03:41:35;5.50;99.90
20574;DHT22;10445;50.216;7.912;2023-02-03T03:44:28;5.50;99.90
20574;DHT22;10445;50.216;7.912;2023-02-03T03:47:23;5.60;99.90
20574;DHT22;10445;50.216;7.912;2023-02-03T03:50:17;5.60;99.90
20574;DHT22;10445;50.216;7.912;2023-02-03T03:53:08;5.60;99.90
20574;DHT22;10445;50.216;7.912;2023-02-03T03:56:00;5.50;99.90
20574;DHT22;10445;50.216;7.912;2023-02-03T03:58:52;5.50;99.90
20574;DHT22;10445;50.216;7.912;2023-02-03T04:01:42;5.50;99.90
20574;DHT22;10445;50.216;7.912;2023-02-03T04:04:32;5.50;99.90
20574;DHT22;10445;50.216;7.912;2023-02-03T04:07:21;5.50;99.90
20574;DHT22;10445;50.216;7.912;2023-02-03T04:10:17;5.50;99.90
20574;DHT22;10445;50.216;7.912;2023-02-03T04:13:09;5.50;99.90
20574;DHT22;10445;50.216;7.912;2023-02-03T04:16:00;5.50;99.90
20574;DHT22;10445;50.216;7.912;2023-02-03T04:18:48;5.50;99.90
20574;DHT22;10445;50.216;7.912;2023-02-03T04:21:37;5.50;99.90
20574;DHT22;10445;50.216;7.912;2023-02-03T04:24:26;5.40;99.90
20574;DHT22;10445;50.216;7.912;2023-02-03T04:27:14;5.50;99.90
20574;DHT22;10445;50.216;7.912;2023-02-03T04:30:04;5.50;99.90
20574;DHT22;10445;50.216;7.912;2023-02-03T04:32:54;5.50;99.90
20574;DHT22;10445;50.216;7.912;2023-02-03T04:35:43;5.40;99.90
20574;DHT22;10445;50.216;7.912;2023-02-03T04:38:31;5.50;99.90
20574;DHT22;10445;50.216;7.912;2023-02-03T04:41:20;5.50;99.90
20574;DHT22;10445;50.216;7.912;2023-02-03T04:44:09;5.50;99.90
20574;DHT22;10445;50.216;7.912;2023-02-03T04:46:58;5.50;99.90
20574;DHT22;10445;50.216;7.912;2023-02-03T04:49:48;5.50;99.90
20574;DHT22;10445;50.216;7.912;2023-02-03T04:52:37;5.50;99.90
20574;DHT22;10445;50.216;7.912;2023-02-03T04:55:26;5.50;99.90
20574;DHT22;10445;50.216;7.912;2023-02-03T04:58:14;5.60;99.90
20574;DHT22;10445;50.216;7.912;2023-02-03T05:01:07;5.50;99.90
20574;DHT22;10445;50.216;7.912;2023-02-03T05:03:56;5.50;99.90
20574;DHT22;10445;50.216;7.912;2023-02-03T05:06:47;5.50;99.90
20574;DHT22;10445;50.216;7.912;2023-02-03T05:09:36;5.50;99.90
20574;DHT22;10445;50.216;7.912;2023-02-03T05:12:24;5.50;99.90
20574;DHT22;10445;50.216;7.912;2023-02-03T05:15:13;5.50;99.90
20574;DHT22;10445;50.216;7.912;2023-02-03T05:18:02;5.50;99.90
20574;DHT22;10445;50.216;7.912;2023-02-03T05:20:51;5.50;99.90
20574;DHT22;10445;50.216;7.912;2023-02-03T05:23:41;5.50;99.90
20574;DHT22;10445;50.216;7.912;2023-02-03T05:26:29;5.50;99.90
20574;DHT22;10445;50.216;7.912;2023-02-03T05:29:18;5.50;99.90
20574;DHT22;10445;50.216;7.912;2023-02-03T05:32:07;5.50;99.90
20574;DHT22;10445;50.216;7.912;2023-02-03T05:34:56;5.50;99.90
20574;DHT22;10445;50.216;7.912;2023-02-03T05:37:44;5.50;99.90
20574;DHT22;10445;50.216;7.912;2023-02-03T05:40:36;5.50;99.90
20574;DHT22;10445;50.216;7.912;2023-02-03T05:43:42;5.50;99.90
20574;DHT22;10445;50.216;7.912;2023-02-03T05:46:31;5.50;99.90
20574;DHT22;10445;50.216;7.912;2023-02-03T05:49:20;5.50;99.90
20574;DHT22;10445;50.216;7.912;2023-02-03T05:52:09;5.50;99.90
20574;DHT22;10445;50.216;7.912;2023-02-03T05:54:58;5.50;99.90
20574;DHT22;10445;50.216;7.912;2023-02-03T05:57:48;5.60;99.90
20574;DHT22;10445;50.216;7.912;2023-02-03T06:00:37;5.60;99.90
20574;DHT22;10445;50.216;7.912;2023-02-03T06:03:25;5.60;99.90
20574;DHT22;10445;50.216;7.912;2023-02-03T06:06:15;5.60;99.90
20574;DHT22;10445;50.216;7.912;2023-02-03T06:09:06;5.60;99.90
20574;DHT22;10445;50.216;7.912;2023-02-03T06:11:55;5.50;99.90
20574;DHT22;10445;50.216;7.912;2023-02-03T06:14:45;5.50;99.90
20574;DHT22;10445;50.216;7.912;2023-02-03T06:17:34;5.50;99.90
20574;DHT22;10445;50.216;7.912;2023-02-03T06:20:23;5.50;99.90
20574;DHT22;10445;50.216;7.912;2023-02-03T06:23:12;5.50;99.90
20574;DHT22;10445;50.216;7.912;2023-02-03T06:26:03;5.50;99.90
20574;DHT22;10445;50.216;7.912;2023-02-03T06:28:52;5.50;99.90
20574;DHT22;10445;50.216;7.912;2023-02-03T06:31:51;5.50;99.90
20574;DHT22;10445;50.216;7.912;2023-02-03T06:34:40;5.50;99.90
20574;DHT22;10445;50.216;7.912;2023-02-03T06:37:29;5.50;99.90
20574;DHT22;10445;50.216;7.912;2023-02-03T06:40:18;5.50;99.90
20574;DHT22;10445;50.216;7.912;2023-02-03T06:43:07;5.50;99.90
20574;DHT22;10445;50.216;7.912;2023-02-03T06:45:56;5.60;99.90
20574;DHT22;10445;50.216;7.912;2023-02-03T06:48:46;5.60;99.90
20574;DHT22;10445;50.216;7.912;2023-02-03T06:51:35;5.60;99.90
20574;DHT22;10445;50.216;7.912;2023-02-03T06:54:23;5.60;99.90
20574;DHT22;10445;50.216;7.912;2023-02-03T06:57:12;5.60;99.90
20574;DHT22;10445;50.216;7.912;2023-02-03T07:00:01;5.60;99.90
20574;DHT22;10445;50.216;7.912;2023-02-03T07:02:54;5.60;99.90
20574;DHT22;10445;50.216;7.912;2023-02-03T07:05:44;5.60;99.90
20574;DHT22;10445;50.216;7.912;2023-02-03T07:08:33;5.60;99.90
20574;DHT22;10445;50.216;7.912;2023-02-03T07:11:22;5.60;99.90
20574;DHT22;10445;50.216;7.912;2023-02-03T07:14:11;5.60;99.90
20574;DHT22;10445;50.216;7.912;2023-02-03T07:16:59;5.60;99.90
20574;DHT22;10445;50.216;7.912;2023-02-03T07:19:48;5.70;99.90
20574;DHT22;10445;50.216;7.912;2023-02-03T07:22:38;5.70;99.90
20574;DHT22;10445;50.216;7.912;2023-02-03T07:25:30;5.60;99.90
20574;DHT22;10445;50.216;7.912;2023-02-03T07:28:19;5.70;99.80
20574;DHT22;10445;50.216;7.912;2023-02-03T07:31:07;5.70;99.10
20574;DHT22;10445;50.216;7.912;2023-02-03T07:33:57;5.70;99.00
20574;DHT22;10445;50.216;7.912;2023-02-03T07:36:48;5.70;99.00
20574;DHT22;10445;50.216;7.912;2023-02-03T07:39:56;5.70;99.00
20574;DHT22;10445;50.216;7.912;2023-02-03T07:42:46;5.70;99.40
20574;DHT22;10445;50.216;7.912;2023-02-03T07:45:36;5.70;99.50
20574;DHT22;10445;50.216;7.912;2023-02-03T07:48:25;5.70;99.00
20574;DHT22;10445;50.216;7.912;2023-02-03T07:51:14;5.70;99.20
20574;DHT22;10445;50.216;7.912;2023-02-03T07:54:04;5.70;98.70
20574;DHT22;10445;50.216;7.912;2023-02-03T07:56:55;5.80;98.30
20574;DHT22;10445;50.216;7.912;2023-02-03T07:59:47;5.80;98.10
20574;DHT22;10445;50.216;7.912;2023-02-03T08:02:38;5.80;97.20
20574;DHT22;10445;50.216;7.912;2023-02-03T08:10:12;5.80;96.70
20574;DHT22;10445;50.216;7.912;2023-02-03T08:59:19;6.10;88.30
20574;DHT22;10445;50.216;7.912;2023-02-03T09:02:27;6.20;86.10
20574;DHT22;10445;50.216;7.912;2023-02-03T09:05:16;6.20;85.50
20574;DHT22;10445;50.216;7.912;2023-02-03T09:08:05;6.20;85.10
20574;DHT22;10445;50.216;7.912;2023-02-03T09:10:54;6.20;85.40
20574;DHT22;10445;50.216;7.912;2023-02-03T09:13:43;6.20;84.20
20574;DHT22;10445;50.216;7.912;2023-02-03T09:16:34;6.30;83.00
20574;DHT22;10445;50.216;7.912;2023-02-03T09:19:23;6.30;83.50
20574;DHT22;10445;50.216;7.912;2023-02-03T09:22:12;6.30;82.80
20574;DHT22;10445;50.216;7.912;2023-02-03T09:25:01;6.30;83.70
20574;DHT22;10445;50.216;7.912;2023-02-03T09:27:49;6.40;82.40
20574;DHT22;10445;50.216;7.912;2023-02-03T09:30:38;6.40;81.90
20574;DHT22;10445;50.216;7.912;2023-02-03T09:33:28;6.40;81.60
20574;DHT22;10445;50.216;7.912;2023-02-03T09:36:17;6.50;82.00
20574;DHT22;10445;50.216;7.912;2023-02-03T09:39:07;6.50;81.30
20574;DHT22;10445;50.216;7.912;2023-02-03T09:42:38;6.50;80.60
20574;DHT22;10445;50.216;7.912;2023-02-03T09:45:31;6.40;80.50
20574;DHT22;10445;50.216;7.912;2023-02-03T09:48:22;6.50;81.20
20574;DHT22;10445;50.216;7.912;2023-02-03T09:51:18;6.50;81.80
20574;DHT22;10445;50.216;7.912;2023-02-03T09:54:14;6.50;81.60
20574;DHT22;10445;50.216;7.912;2023-02-03T09:57:05;6.50;80.90
20574;DHT22;10445;50.216;7.912;2023-02-03T10:00:00;6.50;80.20
20574;DHT22;10445;50.216;7.912;2023-02-03T10:02:55;6.50;81.00
20574;DHT22;10445;50.216;7.912;2023-02-03T10:06:09;6.40;81.20
20574;DHT22;10445;50.216;7.912;2023-02-03T10:09:29;6.50;82.00
20574;DHT22;10445;50.216;7.912;2023-02-03T10:12:37;6.50;79.60
20574;DHT22;10445;50.216;7.912;2023-02-03T10:15:59;6.50;80.50
20574;DHT22;10445;50.216;7.912;2023-02-03T10:18:52;6.50;79.20
20574;DHT22;10445;50.216;7.912;2023-02-03T10:21:45;6.50;79.40
20574;DHT22;10445;50.216;7.912;2023-02-03T10:24:39;6.50;81.10
20574;DHT22;10445;50.216;7.912;2023-02-03T10:27:31;6.50;80.70
20574;DHT22;10445;50.216;7.912;2023-02-03T10:30:22;6.50;81.00
20574;DHT22;10445;50.216;7.912;2023-02-03T10:33:13;6.60;81.60
20574;DHT22;10445;50.216;7.912;2023-02-03T10:36:10;6.60;80.70
20574;DHT22;10445;50.216;7.912;2023-02-03T10:39:07;6.70;80.60
20574;DHT22;10445;50.216;7.912;2023-02-03T10:42:04;6.70;80.20
20574;DHT22;10445;50.216;7.912;2023-02-03T10:44:56;6.70;78.00
20574;DHT22;10445;50.216;7.912;2023-02-03T10:47:48;6.70;78.40
20574;DHT22;10445;50.216;7.912;2023-02-03T10:50:42;6.70;76.90
20574;DHT22;10445;50.216;7.912;2023-02-03T10:53:33;6.80;77.00
20574;DHT22;10445;50.216;7.912;2023-02-03T10:56:25;6.70;76.70
20574;DHT22;10445;50.216;7.912;2023-02-03T10:59:27;6.70;78.20
20574;DHT22;10445;50.216;7.912;2023-02-03T11:02:22;6.70;78.70
20574;DHT22;10445;50.216;7.912;2023-02-03T11:05:19;6.70;81.90
20574;DHT22;10445;50.216;7.912;2023-02-03T11:08:13;6.70;85.70
20574;DHT22;10445;50.216;7.912;2023-02-03T11:11:04;6.60;88.50
20574;DHT22;10445;50.216;7.912;2023-02-03T11:14:09;6.60;91.90
20574;DHT22;10445;50.216;7.912;2023-02-03T11:17:15;6.50;95.50
20574;DHT22;10445;50.216;7.912;2023-02-03T11:20:13;6.50;99.20
20574;DHT22;10445;50.216;7.912;2023-02-03T11:23:04;6.40;99.90
20574;DHT22;10445;50.216;7.912;2023-02-03T11:25:53;6.30;99.90
20574;DHT22;10445;50.216;7.912;2023-02-03T11:28:44;6.40;99.90
20574;DHT22;10445;50.216;7.912;2023-02-03T11:31:35;6.40;99.90
20574;DHT22;10445;50.216;7.912;2023-02-03T11:34:29;6.30;99.90
20574;DHT22;10445;50.216;7.912;2023-02-03T11:37:27;6.30;99.90
20574;DHT22;10445;50.216;7.912;2023-02-03T11:40:25;6.30;99.90
20574;DHT22;10445;50.216;7.912;2023-02-03T11:43:17;6.30;99.90
20574;DHT22;10445;50.216;7.912;2023-02-03T11:46:06;6.30;99.90
20574;DHT22;10445;50.216;7.912;2023-02-03T11:49:03;6.30;99.90
20574;DHT22;10445;50.216;7.912;2023-02-03T11:52:02;6.30;99.90
20574;DHT22;10445;50.216;7.912;2023-02-03T11:54:56;6.30;99.90
20574;DHT22;10445;50.216;7.912;2023-02-03T11:57:55;6.40;99.90
20574;DHT22;10445;50.216;7.912;2023-02-03T12:00:50;6.40;99.90
20574;DHT22;10445;50.216;7.912;2023-02-03T12:04:02;6.40;99.90
20574;DHT22;10445;50.216;7.912;2023-02-03T12:07:20;6.40;99.90
20574;DHT22;10445;50.216;7.912;2023-02-03T12:10:24;6.50;99.90
20574;DHT22;10445;50.216;7.912;2023-02-03T12:13:29;6.50;99.90
20574;DHT22;10445;50.216;7.912;2023-02-03T12:16:40;6.50;99.90
20574;DHT22;10445;50.216;7.912;2023-02-03T12:19:40;6.60;99.90
20574;DHT22;10445;50.216;7.912;2023-02-03T12:22:38;6.60;99.90
20574;DHT22;10445;50.216;7.912;2023-02-03T12:25:39;6.60;99.90
20574;DHT22;10445;50.216;7.912;2023-02-03T12:28:47;6.70;99.90
20574;DHT22;10445;50.216;7.912;2023-02-03T12:31:39;6.70;99.90
20574;DHT22;10445;50.216;7.912;2023-02-03T12:34:34;6.70;99.90
20574;DHT22;10445;50.216;7.912;2023-02-03T12:37:28;6.70;99.90
20574;DHT22;10445;50.216;7.912;2023-02-03T12:40:25;6.70;99.90
20574;DHT22;10445;50.216;7.912;2023-02-03T12:43:22;6.70;99.90
20574;DHT22;10445;50.216;7.912;2023-02-03T12:50:19;6.70;99.90
20574;DHT22;10445;50.216;7.912;2023-02-03T12:53:18;6.80;99.90
20574;DHT22;10445;50.216;7.912;2023-02-03T12:56:13;6.80;99.90
20574;DHT22;10445;50.216;7.912;2023-02-03T12:59:07;6.80;99.90
20574;DHT22;10445;50.216;7.912;2023-02-03T13:02:03;6.80;99.90
20574;DHT22;10445;50.216;7.912;2023-02-03T13:05:04;6.80;99.90
20574;DHT22;10445;50.216;7.912;2023-02-03T13:07:58;6.80;99.90
20574;DHT22;10445;50.216;7.912;2023-02-03T13:10:51;6.80;99.90
20574;DHT22;10445;50.216;7.912;2023-02-03T13:13:47;6.80;99.90
20574;DHT22;10445;50.216;7.912;2023-02-03T13:16:41;6.80;99.90
20574;DHT22;10445;50.216;7.912;2023-02-03T13:19:38;6.80;99.90
20574;DHT22;10445;50.216;7.912;2023-02-03T13:22:29;6.80;99.90
20574;DHT22;10445;50.216;7.912;2023-02-03T13:25:22;6.80;99.90
20574;DHT22;10445;50.216;7.912;2023-02-03T13:28:17;6.90;99.90
20574;DHT22;10445;50.216;7.912;2023-02-03T13:31:22;6.80;99.90
20574;DHT22;10445;50.216;7.912;2023-02-03T13:34:26;6.80;99.90
20574;DHT22;10445;50.216;7.912;2023-02-03T13:40:54;6.80;99.90
20574;DHT22;10445;50.216;7.912;2023-02-03T13:43:47;6.80;99.90
20574;DHT22;10445;50.216;7.912;2023-02-03T13:46:39;6.70;99.90
20574;DHT22;10445;50.216;7.912;2023-02-03T13:49:31;6.80;99.90
20574;DHT22;10445;50.216;7.912;2023-02-03T13:52:32;6.70;99.90
20574;DHT22;10445;50.216;7.912;2023-02-03T13:55:29;6.70;99.90
20574;DHT22;10445;50.216;7.912;2023-02-03T13:58:20;6.70;99.90
20574;DHT22;10445;50.216;7.912;2023-02-03T14:01:31;6.70;99.90
20574;DHT22;10445;50.216;7.912;2023-02-03T14:04:53;6.70;99.90
20574;DHT22;10445;50.216;7.912;2023-02-03T14:07:42;6.70;99.90
20574;DHT22;10445;50.216;7.912;2023-02-03T14:10:31;6.70;99.90
20574;DHT22;10445;50.216;7.912;2023-02-03T14:13:20;6.70;99.90
20574;DHT22;10445;50.216;7.912;2023-02-03T14:16:14;6.80;99.90
20574;DHT22;10445;50.216;7.912;2023-02-03T14:19:10;6.80;99.90
20574;DHT22;10445;50.216;7.912;2023-02-03T14:22:02;6.70;99.90
20574;DHT22;10445;50.216;7.912;2023-02-03T14:24:54;6.80;99.90
20574;DHT22;10445;50.216;7.912;2023-02-03T14:31:17;6.80;99.90
20574;DHT22;10445;50.216;7.912;2023-02-03T14:34:09;6.80;99.90
20574;DHT22;10445;50.216;7.912;2023-02-03T14:37:12;6.80;99.90
20574;DHT22;10445;50.216;7.912;2023-02-03T14:40:23;6.90;99.90
20574;DHT22;10445;50.216;7.912;2023-02-03T14:43:26;6.90;99.90
20574;DHT22;10445;50.216;7.912;2023-02-03T14:46:45;7.00;99.90
20574;DHT22;10445;50.216;7.912;2023-02-03T14:50:00;7.00;99.90
20574;DHT22;10445;50.216;7.912;2023-02-03T14:53:17;7.00;99.90
20574;DHT22;10445;50.216;7.912;2023-02-03T14:56:15;7.00;99.90
20574;DHT22;10445;50.216;7.912;2023-02-03T14:59:09;7.10;99.90
20574;DHT22;10445;50.216;7.912;2023-02-03T15:02:14;7.10;99.90
20574;DHT22;10445;50.216;7.912;2023-02-03T15:05:37;7.10;99.90
20574;DHT22;10445;50.216;7.912;2023-02-03T15:11:44;7.20;99.90
20574;DHT22;10445;50.216;7.912;2023-02-03T15:14:37;7.20;99.90
20574;DHT22;10445;50.216;7.912;2023-02-03T15:17:27;7.20;99.90
20574;DHT22;10445;50.216;7.912;2023-02-03T15:20:44;7.20;99.90
20574;DHT22;10445;50.216;7.912;2023-02-03T15:34:25;7.20;99.90
20574;DHT22;10445;50.216;7.912;2023-02-03T15:37:17;7.20;99.90
20574;DHT22;10445;50.216;7.912;2023-02-03T15:40:14;7.20;99.90
20574;DHT22;10445;50.216;7.912;2023-02-03T15:43:08;7.30;99.90
20574;DHT22;10445;50.216;7.912;2023-02-03T15:46:03;7.30;99.90
20574;DHT22;10445;50.216;7.912;2023-02-03T15:48:58;7.30;99.90
20574;DHT22;10445;50.216;7.912;2023-02-03T15:51:53;7.30;99.90
20574;DHT22;10445;50.216;7.912;2023-02-03T15:54:46;7.30;99.90
20574;DHT22;10445;50.216;7.912;2023-02-03T15:57:39;7.30;99.90
20574;DHT22;10445;50.216;7.912;2023-02-03T16:00:36;7.40;99.90
20574;DHT22;10445;50.216;7.912;2023-02-03T16:03:31;7.40;99.90
20574;DHT22;10445;50.216;7.912;2023-02-03T16:06:24;7.40;99.90
20574;DHT22;10445;50.216;7.912;2023-02-03T16:09:30;7.40;99.90
20574;DHT22;10445;50.216;7.912;2023-02-03T16:12:22;7.40;99.90
20574;DHT22;10445;50.216;7.912;2023-02-03T16:15:20;7.40;99.90
20574;DHT22;10445;50.216;7.912;2023-02-03T16:18:15;7.40;99.90
20574;DHT22;10445;50.216;7.912;2023-02-03T16:21:04;7.30;99.90
20574;DHT22;10445;50.216;7.912;2023-02-03T16:23:53;7.40;99.90
20574;DHT22;10445;50.216;7.912;2023-02-03T16:26:43;7.40;99.90
20574;DHT22;10445;50.216;7.912;2023-02-03T16:29:35;7.30;99.90
20574;DHT22;10445;50.216;7.912;2023-02-03T16:32:41;7.30;99.90
20574;DHT22;10445;50.216;7.912;2023-02-03T16:35:47;7.30;99.90
20574;DHT22;10445;50.216;7.912;2023-02-03T16:38:53;7.30;99.90
20574;DHT22;10445;50.216;7.912;2023-02-03T16:42:12;7.30;99.90
20574;DHT22;10445;50.216;7.912;2023-02-03T16:45:20;7.30;99.90
20574;DHT22;10445;50.216;7.912;2023-02-03T16:48:26;7.30;99.90
20574;DHT22;10445;50.216;7.912;2023-02-03T16:51:37;7.30;99.90
20574;DHT22;10445;50.216;7.912;2023-02-03T16:54:26;7.30;99.90
20574;DHT22;10445;50.216;7.912;2023-02-03T16:57:16;7.30;99.90
20574;DHT22;10445;50.216;7.912;2023-02-03T17:00:06;7.30;99.90
20574;DHT22;10445;50.216;7.912;2023-02-03T17:02:57;7.30;99.20
20574;DHT22;10445;50.216;7.912;2023-02-03T17:05:47;7.30;98.10
20574;DHT22;10445;50.216;7.912;2023-02-03T17:08:37;7.40;98.00
20574;DHT22;10445;50.216;7.912;2023-02-03T17:11:26;7.40;97.30
20574;DHT22;10445;50.216;7.912;2023-02-03T17:14:16;7.30;97.40
20574;DHT22;10445;50.216;7.912;2023-02-03T17:17:04;7.30;96.80
20574;DHT22;10445;50.216;7.912;2023-02-03T17:19:54;7.30;95.20
20574;DHT22;10445;50.216;7.912;2023-02-03T17:22:43;7.30;95.20
20574;DHT22;10445;50.216;7.912;2023-02-03T17:25:32;7.40;94.00
20574;DHT22;10445;50.216;7.912;2023-02-03T17:28:22;7.40;93.10
20574;DHT22;10445;50.216;7.912;2023-02-03T17:31:13;7.40;92.70
20574;DHT22;10445;50.216;7.912;2023-02-03T17:34:02;7.40;92.40
20574;DHT22;10445;50.216;7.912;2023-02-03T17:36:53;7.40;93.80
20574;DHT22;10445;50.216;7.912;2023-02-03T17:39:42;7.40;94.90
20574;DHT22;10445;50.216;7.912;2023-02-03T17:42:48;7.30;94.50
20574;DHT22;10445;50.216;7.912;2023-02-03T17:45:57;7.30;94.80
20574;DHT22;10445;50.216;7.912;2023-02-03T17:49:05;7.30;95.40
20574;DHT22;10445;50.216;7.912;2023-02-03T17:52:11;7.30;96.00
20574;DHT22;10445;50.216;7.912;2023-02-03T17:55:17;7.20;99.20
20574;DHT22;10445;50.216;7.912;2023-02-03T17:58:06;7.20;99.90
20574;DHT22;10445;50.216;7.912;2023-02-03T18:00:54;7.10;99.90
20574;DHT22;10445;50.216;7.912;2023-02-03T18:03:43;7.00;99.90
20574;DHT22;10445;50.216;7.912;2023-02-03T18:06:34;7.00;99.90
20574;DHT22;10445;50.216;7.912;2023-02-03T18:09:23;6.90;99.90
20574;DHT22;10445;50.216;7.912;2023-02-03T18:12:11;6.80;99.90
20574;DHT22;10445;50.216;7.912;2023-02-03T18:15:00;6.80;99.90
20574;DHT22;10445;50.216;7.912;2023-02-03T18:17:49;6.80;99.90
20574;DHT22;10445;50.216;7.912;2023-02-03T18:20:38;6.70;99.90
20574;DHT22;10445;50.216;7.912;2023-02-03T18:23:31;6.80;99.90
20574;DHT22;10445;50.216;7.912;2023-02-03T18:26:21;6.80;99.90
20574;DHT22;10445;50.216;7.912;2023-02-03T18:29:11;6.70;99.90
20574;DHT22;10445;50.216;7.912;2023-02-03T18:32:02;6.70;99.90
20574;DHT22;10445;50.216;7.912;2023-02-03T18:34:52;6.70;99.90
20574;DHT22;10445;50.216;7.912;2023-02-03T18:37:43;6.60;99.90
20574;DHT22;10445;50.216;7.912;2023-02-03T18:40:35;6.50;99.90
20574;DHT22;10445;50.216;7.912;2023-02-03T18:43:24;6.50;99.90
20574;DHT22;10445;50.216;7.912;2023-02-03T18:46:16;6.40;99.90
20574;DHT22;10445;50.216;7.912;2023-02-03T18:49:06;6.30;99.90
20574;DHT22;10445;50.216;7.912;2023-02-03T18:51:56;6.30;99.90
20574;DHT22;10445;50.216;7.912;2023-02-03T18:54:45;6.30;99.90
20574;DHT22;10445;50.216;7.912;2023-02-03T18:57:35;6.30;99.90
20574;DHT22;10445;50.216;7.912;2023-02-03T19:00:24;6.30;99.90
20574;DHT22;10445;50.216;7.912;2023-02-03T19:03:13;6.30;99.90
20574;DHT22;10445;50.216;7.912;2023-02-03T19:06:07;6.20;99.90
20574;DHT22;10445;50.216;7.912;2023-02-03T19:08:56;6.30;99.90
20574;DHT22;10445;50.216;7.912;2023-02-03T19:11:45;6.30;99.90
20574;DHT22;10445;50.216;7.912;2023-02-03T19:14:35;6.30;99.90
20574;DHT22;10445;50.216;7.912;2023-02-03T19:17:24;6.30;99.90
20574;DHT22;10445;50.216;7.912;2023-02-03T19:20:12;6.30;99.90
20574;DHT22;10445;50.216;7.912;2023-02-03T19:23:01;6.20;99.90
20574;DHT22;10445;50.216;7.912;2023-02-03T19:25:54;6.20;99.90
20574;DHT22;10445;50.216;7.912;2023-02-03T19:28:43;6.10;99.90
20574;DHT22;10445;50.216;7.912;2023-02-03T19:31:33;6.20;99.90
20574;DHT22;10445;50.216;7.912;2023-02-03T19:34:23;6.10;99.90
20574;DHT22;10445;50.216;7.912;2023-02-03T19:37:15;6.10;99.90
20574;DHT22;10445;50.216;7.912;2023-02-03T19:40:05;6.10;99.90
20574;DHT22;10445;50.216;7.912;2023-02-03T19:42:54;6.20;99.90
20574;DHT22;10445;50.216;7.912;2023-02-03T19:45:43;6.20;99.90
20574;DHT22;10445;50.216;7.912;2023-02-03T19:48:33;6.20;99.90
20574;DHT22;10445;50.216;7.912;2023-02-03T19:51:23;6.20;99.60
20574;DHT22;10445;50.216;7.912;2023-02-03T19:54:13;6.20;99.60
20574;DHT22;10445;50.216;7.912;2023-02-03T19:57:01;6.20;99.90
20574;DHT22;10445;50.216;7.912;2023-02-03T19:59:50;6.20;99.90